Tupelo Regional Airport
KTUP : rendu visible

Aérodrome :











RETROUVEZ-NOUS SUR...

 
LOGIN :

S'inscrire | Disclaimer

   EN    FR    IT 

 









Légende :    VFR   VFR Marginal   IFR   IFR Intensif   IFR Très Intensif
Visi : 
Plafond : 
>= 8 km
>= 3000ft
5 à 8 km
1000 à 3000 ft
1500m à 5 km
500 à 1000 ft
800 à 1500m
200 à 500 ft
< 800m
< 200 ft
Symboles :   Orages  Brouillard  Fortes neiges  Fortes précipitations  Vent > 20 kt






- Altitude de l'aérodrome : 346 ft
- Code IATA : TUP


KTUP - Tupelo Regional

DERNIER METAR :
  • 200353Z AUTO 00000KT 10SM CLR 07/03 A3004 RMK AO2 SLP172 T00720033 $

METARs EXPIRÉS :
  • 200253Z 25003KT 10SM CLR 08/03 A3004 RMK AO2 SLP171 T00830033 53013 $
  • 200153Z 25004KT 10SM CLR 11/03 A3003 RMK AO2 SLP167 T01110033 $

TAF KTUP
Valide du 20 à 00h jusqu'au 21 à 00h UTC


192320Z 2000/2024 VRB03KT P6SM SKC
FM201500 15007KT P6SM SKC



MET'MAP, la Météo Aéronautique d'un coup d'oeil ! - Copyright ORBIFLY Décembre 2007 - Disclaimer

ORBIFLY MET'MAP TEAM :

Programmation & Développement : Alexandra Zaïnal
Conception & Développement : Baudouin d'Aumeries
Co-Programmation & Développement : Marc-Olivier Méhu
Soutien technique & logistique : Manuel Goepfert

Contact : metmap@orbifly.com




SOURCES & CREDITS :

   NOAA       Earth
Advisory